WETTERDATEN

GESTERN
Time Temp. Taup. r.Fe. Druck
00:07 14.2 11 81 1016.2
00:17 14.1 10.9 81 1016.2
00:27 13.9 10.7 81 1016
00:38 13.7 10.7 82 1016.1
00:47 13.6 10.6 82 1016.1
00:57 13.5 10.5 82 1016
01:08 13.4 10.4 82 1016
01:18 13.3 10.3 82 1015.9
01:28 13.2 10 81 1015.8
01:38 13.2 10 81 1015.7
01:48 13 9.8 81 1015.8
01:58 13 9.8 81 1015.7
02:08 12.8 9.8 82 1015.6
02:18 12.7 9.7 82 1015.5
02:28 12.7 9.7 82 1015.6
02:38 12.5 9.7 83 1015.5
02:48 12.5 9.7 83 1015.6
02:59 12.5 9.7 83 1015.5
03:08 12.5 9.7 83 1015.5
03:18 12.4 9.6 83 1015.5
03:29 12.4 9.6 83 1015.5
03:39 12.4 9.6 83 1015.7
03:49 12.4 9.6 83 1015.6
03:58 12.4 9.8 84 1015.6
04:09 12.4 9.8 84 1015.5
04:19 12.4 9.8 84 1015.4
04:29 12.4 9.8 84 1015.2
04:39 12.4 10 85 1015.3
04:49 12.5 10 85 1015.3
04:59 12.6 10.1 85 1015.4
05:09 12.7 10.1 84 1015.3
05:20 12.8 10.2 84 1015.2
05:29 12.9 10.3 84 1015.3
05:39 13 10.4 84 1015.4
05:50 13 10.2 83 1015.3
06:00 13.1 10.3 83 1015.4
06:10 13.1 10.1 82 1015.4
06:20 13.1 10.1 82 1015.5
06:30 13 10 82 1015.5
06:40 12.9 9.9 82 1015.4
06:50 12.9 9.9 82 1015.5
07:00 12.8 9.8 82 1015.4
07:10 12.7 9.9 83 1015.4
07:20 12.7 9.9 83 1015.5
07:30 12.8 10 83 1015.6
07:41 12.8 9.8 82 1015.6
07:51 12.8 9.6 81 1015.4
08:00 12.8 9.6 81 1015.5
08:11 12.9 9.5 80 1015.5
08:21 12.9 9.4 79 1015.7
08:31 13 9.4 79 1015.7
08:40 13.2 9.5 78 1015.5
08:51 13.3 9.4 77 1015.5
09:01 13.4 9.3 76 1015.5
09:11 13.6 9.5 76 1015.5
09:22 13.6 9.3 75 1015.5
09:31 13.7 9.2 74 1015.5
09:41 13.8 9.1 73 1015.5
09:51 13.9 8.9 72 1015.7
10:02 14 9 72 1015.7
10:12 14.2 8.8 70 1015.8
10:21 14.3 8.5 68 1015.8
10:32 14.3 8.7 69 1015.8
10:42 14.4 8.8 69 1015.7
10:52 14.6 8.8 68 1015.8
11:02 14.9 8.8 67 1015.8
11:12 15.2 8.9 66 1015.8
11:22 15.2 8.4 64 1015.9
11:32 15.5 8.3 62 1015.8
11:42 15.7 9.1 65 1015.9
11:52 15.7 8.7 63 1015.8
12:02 15.9 9.1 64 1015.8
12:12 16 8.5 61 1015.8
12:23 16 8.2 60 1016
12:33 16.2 8.2 59 1015.8
12:42 16.3 8.8 61 1015.8
12:53 16.5 8.7 60 1015.8
13:03 16.7 9.2 61 1015.6
13:13 16.8 9.5 62 1015.6
13:23 17.1 10 63 1015.6
13:33 17.1 10 63 1015.5
13:43 17 9.9 63 1015.5
13:53 16.9 10.1 64 1015.5
14:03 16.7 9.9 64 1015.5
14:14 16.6 9.8 64 1015.4
14:23 16.6 10.2 66 1015.4
14:33 16.8 10.4 66 1015.4
14:44 17.1 10 63 1015.4
14:54 17.4 10.3 63 1015.2
15:04 17.3 10.2 63 1015.2
15:14 17.1 10 63 1015.2
15:24 16.8 9.7 63 1014.9
15:34 16.7 9.9 64 1015
15:44 16.7 10.1 65 1015
15:54 16.7 10.1 65 1015
16:04 16.5 10.1 66 1015
16:14 16.4 10.5 68 1015.1
16:24 16.2 10.5 69 1015
16:35 16.1 10.4 69 1015
16:44 16 10.3 69 1015
16:54 15.9 10.2 69 1015
17:05 15.9 10.4 70 1014.9
17:15 15.9 10.2 69 1014.9
17:25 15.9 10.2 69 1014.8
17:35 15.9 10.2 69 1014.9
17:45 15.8 10.1 69 1015
17:55 15.8 10.1 69 1015.1
18:05 15.7 10 69 1015.1
18:15 15.6 9.9 69 1015
18:25 15.6 9.9 69 1015.1
18:35 15.6 10.2 70 1015
18:45 15.5 10.1 70 1015.1
18:56 15.4 10 70 1015.1
19:05 15.3 10.1 71 1015
19:15 15.3 10.1 71 1015.1
19:26 15.3 10.1 71 1015.3
19:46 15.1 10.1 72 1015.3
19:56 15.2 10.2 72 1015.4
20:06 15.2 10.2 72 1015.4
20:16 15.1 10.1 72 1015.5
20:26 15.1 10.3 73 1015.7
20:37 15 10.4 74 1015.9
20:46 14.9 10.3 74 1015.8
20:56 14.9 10.3 74 1015.7
21:06 14.8 10.4 75 1016
21:17 14.7 10.5 76 1016.1
21:26 14.7 10.5 76 1016.1
21:36 14.6 10.4 76 1016.2
21:47 14.5 10.1 75 1016.3
21:57 14.4 10 75 1016.3
22:07 14.3 9.9 75 1016.5
22:17 14.3 10.1 76 1016.5
22:27 14.3 10.3 77 1016.5
22:37 14.4 10.2 76 1016.6
22:47 14.5 10.3 76 1016.7
22:58 14.3 9.9 75 1016.6
23:07 14.3 9.9 75 1016.6
23:17 14 9.8 76 1016.6
23:27 13.9 9.7 76 1016.5
23:38 13.8 9.8 77 1016.6
23:48 13.7 9.7 77 1016.8
23:57 13.7 9.7 77 1016.8

TAGESSTATISTIK

2021-09-19
TEMPERATUR
MITTEL
14.5
MAXIMUM
17.4
14:54
MINIMUM
12.4
03:18
LUFTDRUCK
MITTEL
1015.6
MAXIMUM
1016.8
23:48
MINIMUM
1014.8
17:25
TAUPUNKT
MITTEL
9.8
MAXIMUM
11.0
00:07
MINIMUM
8.2
12:23
FEUCHTIGKEIT
MITTEL
74
MAXIMUM
85
04:39
MINIMUM
59
12:33
TEMPERATUR (°C)
MINIMUM
12.4
MAXIMUM
17.4
MITTEL
14.5
LUFTDRUCK (hpa)
MINIMUM
1014.8
MAXIMUM
1016.8
MITTEL
1015.6
MESSGERÄT